Time;durP1;ratioP1;P1;durP2;ratioP2;P2;SDS_P1;SDS_P2;PMS_P1;PMS_P2;Temp;Humidity;BMP_temperature;BMP_pressure;BME280_temperature;BME280_humidity;BME280_pressure;Samples;Min_cycle;Max_cycle;Signal;HPM_P1;HPM_P2
2023/09/07 00:01:52;;;;;;;17.07;15.67;;;;;;;18.17;100.00;93383.66;5054480;28;20379;-84
2023/09/07 00:04:18;;;;;;;17.73;15.17;;;;;;;18.34;100.00;93378.44;5051192;28;20186;-84
2023/09/07 00:06:43;;;;;;;19.27;16.27;;;;;;;18.26;100.00;93377.31;5049124;28;20208;-78
2023/09/07 00:09:11;;;;;;;16.60;15.20;;;;;;;18.30;100.00;93372.22;5051402;28;20271;-83
2023/09/07 00:11:36;;;;;;;16.67;15.00;;;;;;;18.40;100.00;93369.28;5049427;28;20236;-84
2023/09/07 00:14:02;;;;;;;16.77;15.10;;;;;;;18.35;100.00;93366.78;5044500;28;20196;-79
2023/09/07 00:16:28;;;;;;;17.73;16.13;;;;;;;18.35;100.00;93369.44;5061277;28;20227;-84
2023/09/07 00:18:53;;;;;;;17.90;16.17;;;;;;;18.33;100.00;93366.31;5071196;28;20200;-83
2023/09/07 00:21:18;;;;;;;16.97;15.17;;;;;;;18.34;100.00;93367.84;5069730;28;20358;-84
2023/09/07 00:23:44;;;;;;;18.20;16.37;;;;;;;18.27;100.00;93378.13;5069281;28;20216;-83
2023/09/07 00:26:12;;;;;;;17.77;16.00;;;;;;;18.42;100.00;93373.22;5070063;28;20226;-84
2023/09/07 00:28:37;;;;;;;18.87;16.83;;;;;;;18.24;100.00;93376.09;5070496;28;20268;-83
2023/09/07 00:31:03;;;;;;;19.43;17.63;;;;;;;18.30;100.00;93362.44;5070432;28;20231;-85
2023/09/07 00:33:29;;;;;;;24.00;19.07;;;;;;;17.98;100.00;93364.66;5060419;28;20183;-83
2023/09/07 00:35:54;;;;;;;20.57;18.70;;;;;;;17.78;100.00;93365.16;5070032;28;20214;-81
2023/09/07 00:38:19;;;;;;;21.10;19.00;;;;;;;17.86;100.00;93367.06;5070234;28;20191;-85
2023/09/07 00:40:45;;;;;;;21.13;18.93;;;;;;;17.63;100.00;93351.25;5069808;28;20250;-83
2023/09/07 00:43:11;;;;;;;21.80;19.80;;;;;;;17.76;100.00;93362.06;5069970;28;20217;-84
2023/09/07 00:45:38;;;;;;;22.10;20.00;;;;;;;17.85;100.00;93361.03;5069549;28;20231;-85
2023/09/07 00:48:04;;;;;;;22.87;20.50;;;;;;;17.85;100.00;93350.44;5069814;28;20237;-84
2023/09/07 00:50:30;;;;;;;24.43;21.93;;;;;;;17.82;100.00;93356.31;5069780;28;20259;-85
2023/09/07 00:52:55;;;;;;;23.60;21.07;;;;;;;17.81;100.00;93361.91;5069155;28;20191;-85
2023/09/07 00:55:22;;;;;;;25.17;22.47;;;;;;;17.89;100.00;93355.88;5069850;28;20233;-84
2023/09/07 00:57:48;;;;;;;23.57;21.13;;;;;;;17.96;100.00;93362.28;5069431;28;20181;-84
2023/09/07 01:00:13;;;;;;;24.57;21.73;;;;;;;17.76;100.00;93340.94;5066837;28;20291;-84
2023/09/07 01:02:39;;;;;;;23.17;20.97;;;;;;;17.97;100.00;93355.13;5049702;28;20179;-84
2023/09/07 01:05:04;;;;;;;25.33;22.73;;;;;;;17.97;100.00;93352.50;5049147;28;20191;-80
2023/09/07 01:07:30;;;;;;;31.23;23.77;;;;;;;17.86;100.00;93357.28;5038119;28;20207;-84
2023/09/07 01:09:57;;;;;;;28.83;24.27;;;;;;;17.96;100.00;93356.25;5049480;28;20180;-84
2023/09/07 01:12:23;;;;;;;28.50;25.57;;;;;;;18.03;100.00;93351.28;5044005;28;20206;-83
2023/09/07 01:14:48;;;;;;;26.47;23.47;;;;;;;18.05;100.00;93351.75;5045494;28;20186;-84
2023/09/07 01:17:14;;;;;;;26.67;23.03;;;;;;;18.06;100.00;93350.66;5050160;28;20220;-84
2023/09/07 01:19:40;;;;;;;28.07;25.03;;;;;;;18.11;100.00;93363.75;5049943;28;20181;-84
2023/09/07 01:22:09;;;;;;;29.60;23.17;;;;;;;18.22;99.74;93357.88;5067231;28;20227;-83
2023/09/07 01:24:37;;;;;;;29.20;24.20;;;;;;;18.25;99.66;93354.63;5068819;28;20202;-84
2023/09/07 01:27:03;;;;;;;27.03;24.13;;;;;;;18.26;99.59;93350.88;5050923;28;20250;-85
2023/09/07 01:29:30;;;;;;;29.20;24.63;;;;;;;18.23;99.56;93340.16;5048662;28;20215;-84
2023/09/07 01:31:56;;;;;;;28.53;25.57;;;;;;;18.12;100.00;93339.66;5049568;28;20232;-85
2023/09/07 01:34:23;;;;;;;28.50;25.47;;;;;;;17.96;100.00;93320.00;5048872;28;20262;-85
2023/09/07 01:36:48;;;;;;;26.77;23.97;;;;;;;18.17;100.00;93351.94;5065204;28;20210;-85
2023/09/07 01:39:14;;;;;;;27.23;24.40;;;;;;;18.14;100.00;93352.56;5069527;28;20853;-79
2023/09/07 01:41:39;;;;;;;30.10;25.10;;;;;;;18.21;100.00;93363.47;5068863;28;20507;-85
2023/09/07 01:44:05;;;;;;;27.43;24.53;;;;;;;18.22;100.00;93342.03;5068810;28;20282;-83
2023/09/07 01:46:30;;;;;;;25.97;23.20;;;;;;;18.03;98.67;93361.84;5068706;28;20278;-84
2023/09/07 01:48:55;;;;;;;26.27;23.43;;;;;;;18.21;98.52;93352.91;5068975;28;20347;-85
2023/09/07 01:51:21;;;;;;;26.80;24.13;;;;;;;18.21;98.71;93350.25;5055907;28;20226;-84
2023/09/07 01:53:49;;;;;;;31.07;22.97;;;;;;;18.28;97.67;93358.50;5049410;28;20191;-85
2023/09/07 01:56:16;;;;;;;28.33;23.63;;;;;;;18.30;98.05;93359.00;5048400;28;20223;-84
2023/09/07 01:58:42;;;;;;;26.00;23.20;;;;;;;18.32;97.00;93346.25;5068495;28;20183;-84
2023/09/07 02:01:29;;;;;;;27.53;23.80;;;;;;;18.29;96.59;93360.84;5068908;28;20241;-82
2023/09/07 02:03:55;;;;;;;25.63;23.03;;;;;;;18.33;96.75;93356.53;5062174;28;20239;-85
2023/09/07 02:06:20;;;;;;;25.13;22.40;;;;;;;18.35;96.94;93353.56;5072894;28;20223;-84
2023/09/07 02:08:46;;;;;;;24.23;21.90;;;;;;;18.28;96.02;93343.44;5072858;28;20243;-79
2023/09/07 02:11:12;;;;;;;25.40;22.80;;;;;;;18.37;95.95;93346.88;5062023;28;20305;-84
2023/09/07 02:13:37;;;;;;;24.37;21.87;;;;;;;18.44;95.46;93347.25;5053171;28;20197;-83
2023/09/07 02:16:05;;;;;;;23.33;21.20;;;;;;;18.25;95.92;93341.41;5062864;28;20237;-84
2023/09/07 02:18:30;;;;;;;26.73;20.73;;;;;;;18.26;95.42;93344.81;5072995;28;20206;-84
2023/09/07 02:21:02;;;;;;;23.30;20.80;;;;;;;18.24;95.52;93349.66;5073407;28;20226;-84
2023/09/07 02:23:27;;;;;;;22.80;20.53;;;;;;;18.32;94.74;93346.25;5072314;28;20199;-83
2023/09/07 02:25:52;;;;;;;20.83;18.93;;;;;;;18.43;93.46;93360.75;5064258;28;20234;-84
2023/09/07 02:28:18;;;;;;;21.70;19.63;;;;;;;18.45;92.22;93350.66;5052938;28;20840;-85
2023/09/07 02:30:43;;;;;;;21.33;19.27;;;;;;;18.51;91.89;93344.91;5059512;28;20286;-84
2023/09/07 02:33:08;;;;;;;23.80;19.50;;;;;;;18.44;93.31;93357.03;5105695;28;20195;-81
2023/09/07 02:35:37;;;;;;;21.00;18.63;;;;;;;18.51;92.72;93355.50;5072216;28;20252;-84
2023/09/07 02:38:02;;;;;;;21.63;19.43;;;;;;;18.53;92.42;93360.47;5071310;28;20198;-85
2023/09/07 02:40:28;;;;;;;23.00;20.67;;;;;;;18.59;94.94;93364.53;5071905;28;20306;-83
2023/09/07 02:42:53;;;;;;;21.80;19.53;;;;;;;18.53;96.55;93357.81;5072756;28;20196;-84
2023/09/07 02:45:18;;;;;;;23.43;21.00;;;;;;;18.49;97.22;93365.59;5072143;28;20226;-84
2023/09/07 02:47:44;;;;;;;22.60;20.20;;;;;;;18.30;98.95;93364.28;5071064;28;20215;-84
2023/09/07 02:50:20;;;;;;;21.67;19.57;;;;;;;18.28;98.36;93363.81;5072477;28;20190;-84
2023/09/07 02:52:46;;;;;;;22.13;19.63;;;;;;;18.09;97.83;93350.06;5070488;28;20538;-85
2023/09/07 02:55:11;;;;;;;21.73;19.50;;;;;;;18.26;97.87;93353.53;5071734;28;20268;-82
2023/09/07 02:57:37;;;;;;;20.73;18.63;;;;;;;18.25;97.17;93359.13;5072268;28;20222;-84
2023/09/07 03:00:09;;;;;;;21.97;19.03;;;;;;;18.27;95.92;93363.00;5071860;28;20175;-83
2023/09/07 03:02:35;;;;;;;22.07;19.97;;;;;;;18.27;96.25;93365.66;5071687;28;20186;-84
2023/09/07 03:05:01;;;;;;;19.87;17.93;;;;;;;18.23;96.96;93366.56;5071571;28;20194;-83
2023/09/07 03:07:26;;;;;;;21.80;19.60;;;;;;;18.17;99.36;93370.44;5072016;28;20283;-85
2023/09/07 03:09:52;;;;;;;21.63;18.53;;;;;;;18.05;99.01;93372.91;5070741;28;20194;-83
2023/09/07 03:12:18;;;;;;;22.27;19.20;;;;;;;17.99;98.07;93347.69;5071743;28;20204;-80
2023/09/07 03:14:44;;;;;;;22.13;20.00;;;;;;;18.18;98.77;93362.22;5071792;28;20258;-82
2023/09/07 03:17:09;;;;;;;22.53;20.20;;;;;;;18.00;98.43;93336.81;5070343;28;20221;-83
2023/09/07 03:19:37;;;;;;;21.30;19.20;;;;;;;18.20;98.52;93367.97;5069305;28;20240;-84
2023/09/07 03:22:03;;;;;;;20.30;18.27;;;;;;;18.22;98.41;93360.53;5053507;28;20227;-80
2023/09/07 03:24:28;;;;;;;23.67;20.00;;;;;;;18.13;99.50;93356.31;5051999;28;20687;-84
2023/09/07 03:26:54;;;;;;;22.37;19.27;;;;;;;18.12;100.00;93362.66;5051668;28;20321;-84
2023/09/07 03:29:19;;;;;;;22.63;19.33;;;;;;;18.08;100.00;93359.06;5051723;28;20223;-84
2023/09/07 03:31:45;;;;;;;21.13;18.97;;;;;;;18.06;100.00;93367.31;5046981;28;20216;-84
2023/09/07 03:34:10;;;;;;;23.33;21.13;;;;;;;18.10;100.00;93378.06;5051334;28;20251;-81
2023/09/07 03:36:36;;;;;;;23.67;21.10;;;;;;;18.04;100.00;93368.72;5050851;28;20213;-84
2023/09/07 03:39:01;;;;;;;23.17;20.77;;;;;;;18.02;100.00;93365.59;5051643;28;20194;-84
2023/09/07 03:41:30;;;;;;;24.33;21.93;;;;;;;18.03;100.00;93353.91;5051211;28;20286;-84
2023/09/07 03:43:56;;;;;;;29.40;21.53;;;;;;;18.05;100.00;93370.25;5051087;28;20927;-84
2023/09/07 03:46:21;;;;;;;25.27;21.77;;;;;;;18.01;100.00;93369.31;5063368;28;20249;-84
2023/09/07 03:48:47;;;;;;;24.97;19.00;;;;;;;18.04;100.00;93368.72;5070629;28;20228;-81
2023/09/07 03:51:13;;;;;;;22.37;19.97;;;;;;;18.00;100.00;93379.09;5071464;28;20263;-84
2023/09/07 03:53:38;;;;;;;22.33;20.13;;;;;;;17.89;100.00;93380.44;5071304;28;20247;-84
2023/09/07 03:56:04;;;;;;;21.70;19.60;;;;;;;17.77;100.00;93379.44;5070711;28;20679;-84
2023/09/07 03:58:29;;;;;;;20.37;18.57;;;;;;;17.81;100.00;93375.09;5071319;28;20194;-84
2023/09/07 04:00:58;;;;;;;18.70;16.70;;;;;;;17.72;100.00;93376.94;5070549;28;20215;-81
2023/09/07 04:03:23;;;;;;;18.07;16.37;;;;;;;17.68;100.00;93376.00;5071050;28;20182;-84
2023/09/07 04:05:50;;;;;;;17.43;15.73;;;;;;;17.58;100.00;93387.59;5063025;28;20237;-84
2023/09/07 04:08:15;;;;;;;17.37;15.97;;;;;;;17.67;100.00;93377.06;5051298;28;20209;-84
2023/09/07 04:10:41;;;;;;;18.47;16.77;;;;;;;17.72;100.00;93387.50;5050990;28;20227;-84
2023/09/07 04:13:06;;;;;;;17.77;16.00;;;;;;;18.01;98.73;93387.81;5051291;28;20258;-85
2023/09/07 04:15:34;;;;;;;17.17;15.67;;;;;;;17.94;97.50;93379.53;5054631;28;20263;-85
2023/09/07 04:17:59;;;;;;;17.17;15.53;;;;;;;17.97;99.56;93384.22;5071281;28;20200;-83
2023/09/07 04:20:26;;;;;;;18.13;16.37;;;;;;;17.92;100.00;93376.41;5070730;28;20233;-85
2023/09/07 04:22:51;;;;;;;17.33;15.70;;;;;;;18.07;100.00;93389.25;5058990;28;20219;-84
2023/09/07 04:25:17;;;;;;;18.73;16.10;;;;;;;17.98;98.23;93383.91;5066736;28;20214;-84
2023/09/07 04:27:42;;;;;;;17.97;16.07;;;;;;;17.84;96.79;93382.47;5049472;28;20206;-82
2023/09/07 04:30:08;;;;;;;17.43;15.83;;;;;;;17.89;95.42;93371.72;5049926;28;20207;-84
2023/09/07 04:32:33;;;;;;;17.50;16.10;;;;;;;18.14;93.47;93395.63;5050494;28;20225;-83
2023/09/07 04:34:59;;;;;;;16.93;15.63;;;;;;;17.92;95.38;93386.97;5049901;28;20192;-83
2023/09/07 04:37:25;;;;;;;17.33;15.70;;;;;;;18.01;93.05;93379.91;5050313;28;20257;-82
2023/09/07 04:39:55;;;;;;;17.13;15.57;;;;;;;18.05;92.54;93389.53;5050661;28;20184;-84
2023/09/07 04:42:20;;;;;;;16.13;14.83;;;;;;;18.24;91.31;93395.34;5069417;28;20211;-84
2023/09/07 04:44:47;;;;;;;16.17;14.63;;;;;;;18.26;90.42;93389.75;5070372;28;20173;-84
2023/09/07 04:47:12;;;;;;;16.17;14.77;;;;;;;18.36;89.21;93384.19;5069796;28;20242;-84
2023/09/07 04:49:38;;;;;;;16.37;14.87;;;;;;;18.38;90.94;93397.94;5069909;28;20216;-83
2023/09/07 04:52:03;;;;;;;16.77;15.33;;;;;;;18.44;90.83;93391.41;5070477;28;20223;-79
2023/09/07 04:54:29;;;;;;;17.27;15.80;;;;;;;18.51;90.28;93404.94;5069364;28;20191;-84
2023/09/07 04:56:54;;;;;;;16.87;15.17;;;;;;;18.50;89.45;93414.78;5069670;28;20231;-84
2023/09/07 04:59:20;;;;;;;16.53;14.90;;;;;;;18.53;90.59;93410.72;5069968;28;20196;-84
2023/09/07 05:01:45;;;;;;;17.13;15.53;;;;;;;18.50;90.68;93398.91;5069490;28;20222;-84
2023/09/07 05:04:11;;;;;;;16.97;15.43;;;;;;;18.44;90.08;93404.63;5069792;28;20183;-78
2023/09/07 05:06:38;;;;;;;16.93;15.43;;;;;;;18.50;88.36;93408.69;5069443;28;20282;-84
2023/09/07 05:09:03;;;;;;;15.33;13.93;;;;;;;18.54;88.03;93409.63;5069570;28;20269;-84
2023/09/07 05:11:29;;;;;;;16.63;15.17;;;;;;;18.50;87.37;93400.75;5069100;28;20228;-80
2023/09/07 05:13:54;;;;;;;16.20;14.80;;;;;;;18.68;85.08;93412.94;5069741;28;20670;-83
2023/09/07 05:16:20;;;;;;;16.03;14.40;;;;;;;18.76;85.07;93404.22;5069351;28;20231;-83
2023/09/07 05:18:45;;;;;;;14.33;13.27;;;;;;;18.92;83.89;93416.72;5070001;28;20184;-85
2023/09/07 05:21:14;;;;;;;15.90;14.43;;;;;;;18.80;84.56;93413.13;5059018;28;20945;-84
2023/09/07 05:23:40;;;;;;;15.47;13.97;;;;;;;18.95;84.23;93396.78;5049348;28;20268;-86
2023/09/07 05:26:05;;;;;;;15.07;13.73;;;;;;;18.87;84.34;93416.09;5049314;28;20232;-84
2023/09/07 05:28:31;;;;;;;14.20;12.90;;;;;;;19.02;82.99;93416.41;5049108;28;20284;-84
2023/09/07 05:30:56;;;;;;;14.03;12.90;;;;;;;19.13;81.38;93407.06;5049503;28;20251;-82
2023/09/07 05:33:22;;;;;;;15.10;13.80;;;;;;;19.28;79.81;93419.13;5049008;28;20195;-84
2023/09/07 05:35:47;;;;;;;15.10;14.00;;;;;;;19.35;80.21;93408.81;5056903;28;20243;-85
2023/09/07 05:38:13;;;;;;;15.20;14.00;;;;;;;19.16;83.67;93425.00;5069004;28;20192;-85
2023/09/07 05:40:41;;;;;;;15.93;14.60;;;;;;;19.41;81.87;93423.44;5068663;28;20224;-85
2023/09/07 05:43:07;;;;;;;16.70;13.70;;;;;;;19.25;81.63;93426.88;5069145;28;20180;-85
2023/09/07 05:45:38;;;;;;;14.93;13.73;;;;;;;19.52;80.62;93422.03;5069076;28;20275;-83
2023/09/07 05:48:04;;;;;;;13.63;12.53;;;;;;;19.49;79.81;93425.31;5068941;28;20220;-84
2023/09/07 05:50:36;;;;;;;14.45;13.23;;;;;;;19.58;80.43;93426.09;5068595;28;20227;-83
2023/09/07 05:53:02;;;;;;;14.47;13.07;;;;;;;19.61;80.65;93424.69;5072476;28;20220;-84
2023/09/07 05:55:27;;;;;;;17.03;13.87;;;;;;;19.59;82.22;93432.97;5063597;28;20246;-85
2023/09/07 05:57:54;;;;;;;15.10;13.63;;;;;;;19.23;81.48;93395.41;5050834;28;20203;-79
2023/09/07 06:00:20;;;;;;;14.57;13.30;;;;;;;19.50;82.48;93412.88;5052534;28;20229;-84
2023/09/07 06:02:46;;;;;;;14.40;13.10;;;;;;;19.67;79.56;93418.94;5068774;28;20188;-85
2023/09/07 06:05:11;;;;;;;12.87;11.90;;;;;;;20.11;79.28;93431.00;5068690;28;20209;-80
2023/09/07 06:07:37;;;;;;;13.63;12.10;;;;;;;20.41;77.17;93414.03;5067796;28;20231;-85
2023/09/07 06:10:05;;;;;;;13.45;12.52;;;;;;;21.33;73.17;93431.63;5069851;28;20230;-83
2023/09/07 06:12:31;;;;;;;15.45;13.00;;;;;;;21.57;73.55;93423.78;5068956;28;20173;-81
2023/09/07 06:14:56;;;;;;;14.43;13.32;;;;;;;21.27;73.93;93422.31;5068716;28;20731;-83
2023/09/07 06:17:21;;;;;;;13.60;12.48;;;;;;;21.92;71.55;93441.00;5069017;28;20189;-84
2023/09/07 06:19:47;;;;;;;16.85;12.50;;;;;;;21.71;72.39;93443.66;5069222;28;20173;-85
2023/09/07 06:22:12;;;;;;;13.93;12.82;;;;;;;21.54;74.37;93445.72;5068016;28;20280;-84
2023/09/07 06:24:37;;;;;;;14.70;13.07;;;;;;;21.34;73.98;93439.28;5067928;28;20269;-83
2023/09/07 06:27:03;;;;;;;15.75;14.30;;;;;;;21.26;75.08;93450.75;5068559;28;20215;-84
2023/09/07 06:29:28;;;;;;;16.55;14.88;;;;;;;21.25;74.88;93448.41;5068508;28;20207;-85
2023/09/07 06:31:54;;;;;;;15.18;13.75;;;;;;;21.12;73.08;93446.78;5068681;28;20239;-83
2023/09/07 06:34:19;;;;;;;15.07;13.73;;;;;;;21.40;70.89;93447.84;5068642;28;20178;-84
2023/09/07 06:36:45;;;;;;;14.85;13.60;;;;;;;21.72;71.53;93453.22;5068069;28;20235;-84
2023/09/07 06:39:10;;;;;;;19.02;13.18;;;;;;;21.68;70.62;93441.66;5068469;28;20202;-84
2023/09/07 06:41:35;;;;;;;13.23;12.27;;;;;;;21.87;70.02;93446.50;5068184;28;20238;-82
2023/09/07 06:44:01;;;;;;;13.55;12.18;;;;;;;21.68;69.86;93446.22;5068339;28;20183;-85
2023/09/07 06:46:26;;;;;;;14.13;12.95;;;;;;;21.56;68.82;93448.78;5055194;28;20261;-83
2023/09/07 06:48:52;;;;;;;14.55;13.05;;;;;;;21.59;69.31;93448.94;5048378;28;20233;-82
2023/09/07 06:51:18;;;;;;;13.25;11.88;;;;;;;21.64;69.37;93440.75;5061735;28;20221;-85
2023/09/07 06:53:43;;;;;;;13.43;12.13;;;;;;;22.19;68.16;93456.38;5071788;28;20224;-84
2023/09/07 06:56:08;;;;;;;13.95;12.75;;;;;;;22.43;67.86;93455.66;5070813;28;20223;-85
2023/09/07 06:58:34;;;;;;;14.98;13.48;;;;;;;22.61;67.69;93455.16;5072292;28;20247;-81
2023/09/07 07:01:00;;;;;;;13.70;12.40;;;;;;;22.72;67.74;93458.94;5084634;28;20227;-84
2023/09/07 07:03:27;;;;;;;13.02;11.82;;;;;;;22.73;66.70;93449.81;5069057;28;20207;-83
2023/09/07 07:05:53;;;;;;;14.20;12.90;;;;;;;22.55;67.95;93445.84;5071844;28;20223;-82
2023/09/07 07:08:18;;;;;;;15.38;12.68;;;;;;;22.92;68.56;93452.72;5071075;28;20211;-83
2023/09/07 07:10:44;;;;;;;15.70;14.30;;;;;;;23.02;69.04;93457.56;5071670;28;20261;-83
2023/09/07 07:13:09;;;;;;;13.90;12.70;;;;;;;23.13;66.35;93450.69;5071120;28;20199;-84
2023/09/07 07:15:35;;;;;;;15.40;14.10;;;;;;;22.80;65.80;93457.25;5071387;28;20238;-81
2023/09/07 07:18:01;;;;;;;14.63;13.20;;;;;;;22.35;68.08;93451.19;5072281;28;20188;-83
2023/09/07 07:20:27;;;;;;;16.10;14.52;;;;;;;22.43;67.58;93464.41;5066368;28;20227;-84
2023/09/07 07:22:52;;;;;;;14.52;13.40;;;;;;;22.34;67.42;93469.03;5040686;28;20196;-83
2023/09/07 07:25:17;;;;;;;15.18;13.93;;;;;;;22.01;68.96;93461.09;5054521;28;20273;-82
2023/09/07 07:27:43;;;;;;;14.10;12.98;;;;;;;21.85;70.16;93464.69;5071713;28;20230;-84
2023/09/07 07:30:09;;;;;;;15.88;14.40;;;;;;;21.63;70.96;93465.81;5067203;28;20184;-83
2023/09/07 07:32:34;;;;;;;17.50;13.65;;;;;;;21.49;70.79;93459.97;5063895;28;20242;-83
2023/09/07 07:35:00;;;;;;;14.25;13.05;;;;;;;21.73;71.18;93465.38;5070221;28;20221;-84
2023/09/07 07:37:25;;;;;;;14.55;12.98;;;;;;;21.93;69.72;93472.59;5071551;28;20201;-84
2023/09/07 07:39:51;;;;;;;14.15;13.05;;;;;;;21.53;71.05;93428.19;5070850;28;20186;-84
2023/09/07 07:42:18;;;;;;;14.73;13.40;;;;;;;22.08;70.87;93479.97;5071226;28;20773;-84
2023/09/07 07:44:43;;;;;;;20.58;15.20;;;;;;;22.20;71.78;93474.69;5071172;28;20193;-84
2023/09/07 07:47:09;;;;;;;17.13;15.68;;;;;;;21.91;73.25;93476.69;5070610;28;20266;-83
2023/09/07 07:49:35;;;;;;;16.00;14.32;;;;;;;21.87;73.23;93476.56;5069586;28;20209;-83
2023/09/07 07:52:07;;;;;;;16.08;14.15;;;;;;;21.54;74.67;93477.59;5070942;28;20883;-84
2023/09/07 07:54:36;;;;;;;16.77;15.07;;;;;;;21.63;75.26;93478.31;5069688;28;20191;-84
2023/09/07 07:57:02;;;;;;;20.15;16.15;;;;;;;21.83;75.51;93469.56;5053252;28;20700;-83
2023/09/07 07:59:27;;;;;;;16.30;15.00;;;;;;;21.90;74.76;93454.63;5051481;28;20202;-82
2023/09/07 08:01:52;;;;;;;16.80;15.20;;;;;;;22.11;74.89;93478.53;5066947;28;20228;-84
2023/09/07 08:04:18;;;;;;;16.88;15.30;;;;;;;21.69;76.26;93479.66;5070798;28;20226;-84
2023/09/07 08:06:43;;;;;;;16.70;15.05;;;;;;;21.81;76.91;93467.22;5069985;28;20278;-80
2023/09/07 08:09:08;;;;;;;16.38;14.85;;;;;;;21.70;75.53;93475.88;5070775;28;20220;-84
2023/09/07 08:11:34;;;;;;;16.67;15.25;;;;;;;21.77;75.07;93469.00;5056324;28;20314;-84
2023/09/07 08:13:59;;;;;;;15.13;13.88;;;;;;;21.82;74.33;93471.44;5051042;28;20228;-84
2023/09/07 08:16:25;;;;;;;16.27;14.77;;;;;;;21.73;74.34;93470.69;5063072;28;20225;-85
2023/09/07 08:18:50;;;;;;;16.33;14.82;;;;;;;21.77;74.65;93470.88;5070538;28;20206;-78
2023/09/07 08:21:16;;;;;;;16.40;14.90;;;;;;;21.95;74.76;93466.94;5070231;28;20219;-85
2023/09/07 08:23:41;;;;;;;15.85;14.32;;;;;;;22.36;73.32;93468.72;5070988;28;20268;-83
2023/09/07 08:26:09;;;;;;;15.70;14.10;;;;;;;22.52;71.53;93472.31;5071441;28;20241;-80
2023/09/07 08:28:34;;;;;;;18.35;14.77;;;;;;;22.39;71.72;93470.72;5070647;28;20222;-83
2023/09/07 08:31:00;;;;;;;15.23;13.82;;;;;;;22.69;70.20;93470.25;5069543;28;20233;-83
2023/09/07 08:33:29;;;;;;;14.77;13.30;;;;;;;22.61;69.79;93459.69;5070153;28;20213;-83
2023/09/07 08:35:56;;;;;;;14.35;13.00;;;;;;;22.49;67.98;93464.97;5070233;28;20234;-82
2023/09/07 08:38:25;;;;;;;14.38;12.85;;;;;;;22.49;68.52;93473.72;5070380;28;20620;-84
2023/09/07 08:40:54;;;;;;;13.93;12.55;;;;;;;22.56;67.20;93470.53;5070202;28;20582;-83
2023/09/07 08:43:20;;;;;;;14.85;12.57;;;;;;;22.62;65.04;93480.66;5070241;28;20180;-84
2023/09/07 08:45:50;;;;;;;14.82;13.43;;;;;;;22.78;66.94;93473.56;5069858;28;20228;-83
2023/09/07 08:48:18;;;;;;;13.73;12.63;;;;;;;22.69;68.20;93469.47;5058822;28;20233;-83
2023/09/07 08:50:49;;;;;;;13.75;12.60;;;;;;;22.84;67.09;93469.56;5069847;28;20227;-82
2023/09/07 08:53:19;;;;;;;13.60;12.18;;;;;;;22.57;66.40;93464.88;5070681;28;20205;-83
2023/09/07 08:55:44;;;;;;;14.00;12.80;;;;;;;22.74;65.93;93464.69;5069286;28;20366;-84
2023/09/07 08:58:10;;;;;;;13.77;12.57;;;;;;;22.75;65.71;93462.81;5070320;28;20198;-82
2023/09/07 09:00:37;;;;;;;15.30;13.85;;;;;;;22.72;65.70;93471.47;5069223;28;20227;-83
2023/09/07 09:03:03;;;;;;;15.25;13.70;;;;;;;22.78;64.41;93468.25;5069906;28;20223;-83
2023/09/07 09:05:30;;;;;;;14.85;13.38;;;;;;;22.90;64.69;93465.56;5069377;28;20227;-83
2023/09/07 09:08:05;;;;;;;13.80;12.65;;;;;;;22.82;64.52;93463.03;5069981;28;20208;-79
2023/09/07 09:10:30;;;;;;;15.27;13.32;;;;;;;22.99;64.51;93462.81;5069142;28;20226;-81
2023/09/07 09:12:56;;;;;;;13.32;12.02;;;;;;;22.86;63.42;93459.38;5069585;28;20187;-83
2023/09/07 09:15:22;;;;;;;14.40;13.10;;;;;;;22.79;64.26;93472.47;5067889;28;20230;-83
2023/09/07 09:17:48;;;;;;;14.93;13.60;;;;;;;22.82;64.08;93468.38;5069880;28;20198;-84
2023/09/07 09:20:24;;;;;;;16.38;12.40;;;;;;;22.88;62.63;93454.47;5069020;28;20286;-84
2023/09/07 09:22:53;;;;;;;13.45;12.05;;;;;;;23.16;60.39;93458.00;5069874;28;20182;-83
2023/09/07 09:25:19;;;;;;;12.82;11.68;;;;;;;23.01;58.66;93424.06;5068646;28;20250;-83
2023/09/07 09:27:44;;;;;;;12.93;11.73;;;;;;;23.03;59.45;93442.38;5069509;28;20227;-83
2023/09/07 09:30:10;;;;;;;14.60;11.85;;;;;;;23.10;59.49;93445.25;5068519;28;20219;-82
2023/09/07 09:32:36;;;;;;;18.70;13.35;;;;;;;22.96;61.42;93458.91;5068919;28;20205;-83
2023/09/07 09:35:02;;;;;;;13.00;11.90;;;;;;;23.00;62.93;93459.03;5068644;28;20189;-84
2023/09/07 09:37:28;;;;;;;13.63;12.43;;;;;;;23.21;61.56;93449.78;5068691;28;20214;-80
2023/09/07 09:39:56;;;;;;;13.75;12.55;;;;;;;23.15;61.01;93455.69;5068904;28;20195;-82
2023/09/07 09:42:23;;;;;;;13.88;12.38;;;;;;;23.25;61.69;93448.03;5069376;28;20196;-84
2023/09/07 09:44:49;;;;;;;13.68;12.63;;;;;;;23.44;61.66;93450.13;5067408;28;20213;-82
2023/09/07 09:47:15;;;;;;;13.57;12.55;;;;;;;23.53;60.77;93438.19;5068771;28;20245;-84
2023/09/07 09:49:41;;;;;;;12.90;11.65;;;;;;;23.46;57.09;93431.88;5068597;28;20254;-84
2023/09/07 09:52:07;;;;;;;13.15;11.90;;;;;;;23.33;61.32;93447.13;5049895;28;20227;-82
2023/09/07 09:54:35;;;;;;;13.88;12.68;;;;;;;23.33;59.67;93446.38;5049134;28;20192;-82
2023/09/07 09:57:00;;;;;;;13.63;12.13;;;;;;;23.42;59.72;93434.47;5065696;28;20231;-83
2023/09/07 09:59:26;;;;;;;13.13;12.02;;;;;;;23.59;60.09;93436.84;5069056;28;20177;-84
2023/09/07 10:01:54;;;;;;;12.95;11.75;;;;;;;23.60;58.68;93438.41;5068238;28;20475;-88
2023/09/07 10:04:22;;;;;;;12.65;11.55;;;;;;;24.00;57.47;93442.94;5056222;28;20186;-79
2023/09/07 10:06:55;;;;;;;13.48;12.18;;;;;;;24.10;57.55;93437.09;5068344;28;20262;-83
2023/09/07 10:09:21;;;;;;;10.93;10.13;;;;;;;23.52;54.42;93427.84;5058403;28;20208;-82
2023/09/07 10:11:53;;;;;;;11.52;10.65;;;;;;;23.78;56.13;93439.66;5068359;28;20223;-83
2023/09/07 10:14:18;;;;;;;11.40;10.50;;;;;;;24.12;55.12;93434.88;5069471;28;20212;-80
2023/09/07 10:16:46;;;;;;;13.05;11.88;;;;;;;24.40;52.74;93430.25;5053202;28;20221;-83
2023/09/07 10:19:29;;;;;;;12.45;11.27;;;;;;;24.29;54.19;93434.56;5048957;28;20203;-83
2023/09/07 10:21:56;;;;;;;12.02;11.13;;;;;;;24.05;52.90;93430.13;5048535;28;20308;-83
2023/09/07 10:24:35;;;;;;;10.85;9.95;;;;;;;23.96;54.74;93428.69;5049837;28;20209;-83
2023/09/07 10:27:05;;;;;;;11.73;10.75;;;;;;;24.52;52.34;93419.50;5069860;28;20299;-83
2023/09/07 10:29:54;;;;;;;12.40;11.30;;;;;;;24.71;52.03;93419.59;5072979;28;20207;-83
2023/09/07 10:32:19;;;;;;;11.93;10.77;;;;;;;24.35;54.17;93415.28;5063108;28;20282;-83
2023/09/07 10:34:45;;;;;;;12.65;11.55;;;;;;;24.66;52.63;93414.50;5072528;28;20210;-83
2023/09/07 10:37:13;;;;;;;11.68;10.55;;;;;;;24.61;50.94;93410.19;5072596;28;20221;-83
2023/09/07 10:39:39;;;;;;;11.60;10.73;;;;;;;24.52;51.39;93414.16;5072889;28;20181;-83
2023/09/07 10:42:05;;;;;;;11.60;10.73;;;;;;;24.09;52.40;93419.53;5072470;28;20838;-82
2023/09/07 10:44:30;;;;;;;12.63;11.35;;;;;;;23.99;53.24;93409.34;5072677;28;20189;-83
2023/09/07 10:46:59;;;;;;;10.25;9.55;;;;;;;23.94;51.71;93412.25;5072442;28;20255;-83
2023/09/07 10:49:25;;;;;;;11.57;10.77;;;;;;;23.98;52.48;93407.81;5070958;28;20344;-84
2023/09/07 10:51:50;;;;;;;12.30;11.18;;;;;;;23.69;54.80;93407.03;5072005;28;20330;-84
2023/09/07 10:54:24;;;;;;;11.88;10.88;;;;;;;23.55;54.61;93406.63;5072736;28;20229;-84
2023/09/07 10:56:50;;;;;;;12.55;11.48;;;;;;;23.27;55.46;93405.06;5072106;28;20218;-82
2023/09/07 10:59:16;;;;;;;12.07;11.18;;;;;;;22.92;58.49;93409.31;5072068;28;20172;-83
2023/09/07 11:01:45;;;;;;;14.75;13.70;;;;;;;23.28;57.54;93412.72;5071680;28;20264;-83
2023/09/07 11:04:11;;;;;;;12.73;11.70;;;;;;;23.32;57.09;93410.94;5072016;28;20191;-83
2023/09/07 11:06:38;;;;;;;14.68;13.20;;;;;;;23.32;57.85;93410.94;5070850;28;20262;-79
2023/09/07 11:09:04;;;;;;;12.15;11.25;;;;;;;23.63;57.51;93405.72;5071745;28;20246;-83
2023/09/07 11:11:34;;;;;;;13.25;12.15;;;;;;;23.66;56.94;93412.25;5070891;28;20224;-82